Accueil
METAR-TAF:

METAR-TAF

Aéroports :

Aéroport de Lanzarote

Lanzarote, Espagne

latitude: 28-57N, longitude: 013-36W, altitude: 14 m

Observation

Le bulletin a été fait il y a 41 minutes, à 16:30 UTC
Vent 9 kt de sud
Température 22°C
Humidité 78%
Pression 1015 hPa
Visibilité 10 km ou plus
Quelques nuages à une hauteur de 2000 ft
Nuages épars à une hauteur de 3000 ft

METAR: GCRR 061630Z 19009KT 9999 FEW020 SCT030 22/18 Q1015

Heure: 17:11 (17:11 UTC)

Prévision

Le bulletin a été fait il y a 3 heures et 11 minutes, à 14:00 UTC
Prévision valable du 06 à 15 UTC au 07 à 15 UTC
Vent 8 kt de sud/sud-ouest
Visibilité 10 km ou plus
Nuages épars à une hauteur de 2500 ft
Probabilité 30% :
Temporairement
du 06 à 15 UTC au 06 à 20 UTC
pluie
Probabilité 40% :
Temporairement
du 06 à 18 UTC au 06 à 22 UTC
Vent 10 kt de ouest

TAF: GCRR 061400Z 0615/0715 20008KT 9999 SCT025 TX26/0714Z TN17/0706Z PROB30 TEMPO 0615/0620 RA PROB40 TEMPO 0618/0622 26010KT

Observations et prévisions météorologiques de plus de 4000 aéroports (messages METAR et TAF).

Les stations disponibles sont représentées par des disques jaunes et rouges sur la carte.

Passer la souris dessus pour voir le nom de la station.

Cliquer dessus pour voir les observations et prévisions météorologiques.

Pour changer de carte: cliquez sur les boutons verts avec une croix noire pour zoomer, sur le bouton vert avec un tiret pour effectuer un zoom arrière, ou sur les flèches vertes pour les cartes adjacentes.


METAR-TAF: